sensor_id;sensor_type;location;lat;lon;timestamp;temperature;humidity
8965;DHT22;4517;49.020;12.066;2023-04-25T00:01:23;7.60;99.90
8965;DHT22;4517;49.020;12.066;2023-04-25T00:03:49;7.60;99.90
8965;DHT22;4517;49.020;12.066;2023-04-25T00:06:22;7.60;99.90
8965;DHT22;4517;49.020;12.066;2023-04-25T00:08:54;7.60;99.90
8965;DHT22;4517;49.020;12.066;2023-04-25T00:11:20;7.60;99.90
8965;DHT22;4517;49.020;12.066;2023-04-25T00:13:46;7.70;99.90
8965;DHT22;4517;49.020;12.066;2023-04-25T00:16:12;7.60;99.90
8965;DHT22;4517;49.020;12.066;2023-04-25T00:18:41;7.50;99.90
8965;DHT22;4517;49.020;12.066;2023-04-25T00:21:07;7.40;99.90
8965;DHT22;4517;49.020;12.066;2023-04-25T00:23:34;7.40;99.90
8965;DHT22;4517;49.020;12.066;2023-04-25T00:26:01;7.40;99.90
8965;DHT22;4517;49.020;12.066;2023-04-25T00:28:27;7.30;99.90
8965;DHT22;4517;49.020;12.066;2023-04-25T00:30:53;7.20;99.90
8965;DHT22;4517;49.020;12.066;2023-04-25T00:33:18;7.20;99.90
8965;DHT22;4517;49.020;12.066;2023-04-25T00:35:51;7.20;99.90
8965;DHT22;4517;49.020;12.066;2023-04-25T00:38:16;7.10;99.90
8965;DHT22;4517;49.020;12.066;2023-04-25T00:40:42;7.20;99.90
8965;DHT22;4517;49.020;12.066;2023-04-25T00:43:09;7.20;99.90
8965;DHT22;4517;49.020;12.066;2023-04-25T00:45:38;7.20;99.90
8965;DHT22;4517;49.020;12.066;2023-04-25T00:48:04;7.20;99.90
8965;DHT22;4517;49.020;12.066;2023-04-25T00:50:30;7.30;99.90
8965;DHT22;4517;49.020;12.066;2023-04-25T00:52:56;7.20;99.90
8965;DHT22;4517;49.020;12.066;2023-04-25T00:55:21;7.20;99.90
8965;DHT22;4517;49.020;12.066;2023-04-25T00:57:48;7.00;99.90
8965;DHT22;4517;49.020;12.066;2023-04-25T01:00:14;7.00;99.90
8965;DHT22;4517;49.020;12.066;2023-04-25T01:02:41;7.00;99.90
8965;DHT22;4517;49.020;12.066;2023-04-25T01:05:07;6.90;99.90
8965;DHT22;4517;49.020;12.066;2023-04-25T01:07:34;6.90;99.90
8965;DHT22;4517;49.020;12.066;2023-04-25T01:10:00;6.90;99.90
8965;DHT22;4517;49.020;12.066;2023-04-25T01:12:26;6.90;99.90
8965;DHT22;4517;49.020;12.066;2023-04-25T01:14:52;6.90;99.90
8965;DHT22;4517;49.020;12.066;2023-04-25T01:17:18;6.90;99.90
8965;DHT22;4517;49.020;12.066;2023-04-25T01:19:44;6.90;99.90
8965;DHT22;4517;49.020;12.066;2023-04-25T01:22:13;6.80;99.90
8965;DHT22;4517;49.020;12.066;2023-04-25T01:24:39;6.80;99.90
8965;DHT22;4517;49.020;12.066;2023-04-25T01:27:05;6.70;99.90
8965;DHT22;4517;49.020;12.066;2023-04-25T01:29:32;6.80;99.90
8965;DHT22;4517;49.020;12.066;2023-04-25T01:31:59;6.80;99.90
8965;DHT22;4517;49.020;12.066;2023-04-25T01:34:25;6.90;99.90
8965;DHT22;4517;49.020;12.066;2023-04-25T01:36:51;6.90;99.90
8965;DHT22;4517;49.020;12.066;2023-04-25T01:39:18;6.80;99.90
8965;DHT22;4517;49.020;12.066;2023-04-25T01:41:45;6.90;99.90
8965;DHT22;4517;49.020;12.066;2023-04-25T01:44:11;6.90;99.90
8965;DHT22;4517;49.020;12.066;2023-04-25T01:46:36;6.90;99.90
8965;DHT22;4517;49.020;12.066;2023-04-25T01:49:02;6.90;99.90
8965;DHT22;4517;49.020;12.066;2023-04-25T01:51:28;6.90;99.90
8965;DHT22;4517;49.020;12.066;2023-04-25T01:53:54;7.00;99.90
8965;DHT22;4517;49.020;12.066;2023-04-25T01:56:20;7.00;99.90
8965;DHT22;4517;49.020;12.066;2023-04-25T01:58:46;7.10;99.90
8965;DHT22;4517;49.020;12.066;2023-04-25T02:01:11;7.10;99.90
8965;DHT22;4517;49.020;12.066;2023-04-25T02:03:37;7.20;99.90
8965;DHT22;4517;49.020;12.066;2023-04-25T02:06:02;7.10;99.90
8965;DHT22;4517;49.020;12.066;2023-04-25T02:08:28;7.10;99.90
8965;DHT22;4517;49.020;12.066;2023-04-25T02:10:54;7.10;99.90
8965;DHT22;4517;49.020;12.066;2023-04-25T02:13:19;7.10;99.90
8965;DHT22;4517;49.020;12.066;2023-04-25T02:15:45;7.10;99.90
8965;DHT22;4517;49.020;12.066;2023-04-25T02:18:10;7.10;99.90
8965;DHT22;4517;49.020;12.066;2023-04-25T02:20:36;7.00;99.90
8965;DHT22;4517;49.020;12.066;2023-04-25T02:23:02;7.00;99.90
8965;DHT22;4517;49.020;12.066;2023-04-25T02:25:28;7.00;99.90
8965;DHT22;4517;49.020;12.066;2023-04-25T02:27:54;7.00;99.90
8965;DHT22;4517;49.020;12.066;2023-04-25T02:30:20;7.00;99.90
8965;DHT22;4517;49.020;12.066;2023-04-25T02:32:45;7.20;99.90
8965;DHT22;4517;49.020;12.066;2023-04-25T02:35:11;7.20;99.90
8965;DHT22;4517;49.020;12.066;2023-04-25T02:37:38;7.20;99.90
8965;DHT22;4517;49.020;12.066;2023-04-25T02:40:04;7.20;99.90
8965;DHT22;4517;49.020;12.066;2023-04-25T02:42:30;7.30;99.90
8965;DHT22;4517;49.020;12.066;2023-04-25T02:44:56;7.20;99.90
8965;DHT22;4517;49.020;12.066;2023-04-25T02:47:21;7.00;99.90
8965;DHT22;4517;49.020;12.066;2023-04-25T02:49:47;7.00;99.90
8965;DHT22;4517;49.020;12.066;2023-04-25T02:52:13;6.90;99.90
8965;DHT22;4517;49.020;12.066;2023-04-25T02:54:39;6.90;99.90
8965;DHT22;4517;49.020;12.066;2023-04-25T02:57:05;6.80;99.90
8965;DHT22;4517;49.020;12.066;2023-04-25T02:59:31;6.80;99.90
8965;DHT22;4517;49.020;12.066;2023-04-25T03:01:56;6.90;99.90
8965;DHT22;4517;49.020;12.066;2023-04-25T03:04:22;7.00;99.90
8965;DHT22;4517;49.020;12.066;2023-04-25T03:06:52;7.00;99.90
8965;DHT22;4517;49.020;12.066;2023-04-25T03:09:18;7.00;99.90
8965;DHT22;4517;49.020;12.066;2023-04-25T03:11:44;7.00;99.90
8965;DHT22;4517;49.020;12.066;2023-04-25T03:14:11;6.90;99.90
8965;DHT22;4517;49.020;12.066;2023-04-25T03:16:36;7.00;99.90
8965;DHT22;4517;49.020;12.066;2023-04-25T03:19:03;6.90;99.90
8965;DHT22;4517;49.020;12.066;2023-04-25T03:21:29;6.90;99.90
8965;DHT22;4517;49.020;12.066;2023-04-25T03:23:54;6.90;99.90
8965;DHT22;4517;49.020;12.066;2023-04-25T03:26:20;6.90;99.90
8965;DHT22;4517;49.020;12.066;2023-04-25T03:28:46;6.80;99.90
8965;DHT22;4517;49.020;12.066;2023-04-25T03:31:11;6.90;99.90
8965;DHT22;4517;49.020;12.066;2023-04-25T03:33:37;7.00;99.90
8965;DHT22;4517;49.020;12.066;2023-04-25T03:36:02;7.00;99.90
8965;DHT22;4517;49.020;12.066;2023-04-25T03:38:28;7.00;99.90
8965;DHT22;4517;49.020;12.066;2023-04-25T03:40:54;7.20;99.90
8965;DHT22;4517;49.020;12.066;2023-04-25T03:43:21;7.20;99.90
8965;DHT22;4517;49.020;12.066;2023-04-25T03:45:47;7.30;99.90
8965;DHT22;4517;49.020;12.066;2023-04-25T03:48:12;7.40;99.90
8965;DHT22;4517;49.020;12.066;2023-04-25T03:50:38;7.40;99.90
8965;DHT22;4517;49.020;12.066;2023-04-25T03:53:04;7.40;99.90
8965;DHT22;4517;49.020;12.066;2023-04-25T03:55:30;7.30;99.90
8965;DHT22;4517;49.020;12.066;2023-04-25T03:57:57;7.20;99.90
8965;DHT22;4517;49.020;12.066;2023-04-25T04:00:23;7.20;99.90
8965;DHT22;4517;49.020;12.066;2023-04-25T04:02:49;7.20;99.90
8965;DHT22;4517;49.020;12.066;2023-04-25T04:05:15;7.10;99.90
8965;DHT22;4517;49.020;12.066;2023-04-25T04:07:40;7.10;99.90
8965;DHT22;4517;49.020;12.066;2023-04-25T04:10:09;7.00;99.90
8965;DHT22;4517;49.020;12.066;2023-04-25T04:12:34;7.10;99.90
8965;DHT22;4517;49.020;12.066;2023-04-25T04:15:01;7.10;99.90
8965;DHT22;4517;49.020;12.066;2023-04-25T04:17:29;7.20;99.90
8965;DHT22;4517;49.020;12.066;2023-04-25T04:19:54;7.20;99.90
8965;DHT22;4517;49.020;12.066;2023-04-25T04:22:20;7.20;99.90
8965;DHT22;4517;49.020;12.066;2023-04-25T04:24:45;7.30;99.90
8965;DHT22;4517;49.020;12.066;2023-04-25T04:27:13;7.40;99.90
8965;DHT22;4517;49.020;12.066;2023-04-25T04:29:39;7.40;99.90
8965;DHT22;4517;49.020;12.066;2023-04-25T04:32:05;7.40;99.90
8965;DHT22;4517;49.020;12.066;2023-04-25T04:34:30;7.40;99.90
8965;DHT22;4517;49.020;12.066;2023-04-25T04:36:56;7.40;99.90
8965;DHT22;4517;49.020;12.066;2023-04-25T04:39:22;7.50;99.90
8965;DHT22;4517;49.020;12.066;2023-04-25T04:41:48;7.50;99.90
8965;DHT22;4517;49.020;12.066;2023-04-25T04:44:14;7.50;99.90
8965;DHT22;4517;49.020;12.066;2023-04-25T04:46:40;7.60;99.90
8965;DHT22;4517;49.020;12.066;2023-04-25T04:49:08;7.60;99.90
8965;DHT22;4517;49.020;12.066;2023-04-25T04:51:34;7.70;99.90
8965;DHT22;4517;49.020;12.066;2023-04-25T04:54:00;7.70;99.90
8965;DHT22;4517;49.020;12.066;2023-04-25T04:56:28;7.70;99.90
8965;DHT22;4517;49.020;12.066;2023-04-25T04:58:56;7.70;99.90
8965;DHT22;4517;49.020;12.066;2023-04-25T05:01:23;7.70;99.90
8965;DHT22;4517;49.020;12.066;2023-04-25T05:03:49;7.70;99.90
8965;DHT22;4517;49.020;12.066;2023-04-25T05:06:17;7.60;99.90
8965;DHT22;4517;49.020;12.066;2023-04-25T05:08:43;7.60;99.90
8965;DHT22;4517;49.020;12.066;2023-04-25T05:11:09;7.60;99.90
8965;DHT22;4517;49.020;12.066;2023-04-25T05:13:34;7.80;99.90
8965;DHT22;4517;49.020;12.066;2023-04-25T05:16:00;8.20;99.90
8965;DHT22;4517;49.020;12.066;2023-04-25T05:18:25;8.70;99.90
8965;DHT22;4517;49.020;12.066;2023-04-25T05:20:51;9.80;99.90
8965;DHT22;4517;49.020;12.066;2023-04-25T05:23:16;10.90;99.90
8965;DHT22;4517;49.020;12.066;2023-04-25T05:25:42;11.10;99.90
8965;DHT22;4517;49.020;12.066;2023-04-25T05:28:08;13.50;99.90
8965;DHT22;4517;49.020;12.066;2023-04-25T05:30:34;15.30;99.90
8965;DHT22;4517;49.020;12.066;2023-04-25T05:33:00;17.40;99.90
8965;DHT22;4517;49.020;12.066;2023-04-25T05:35:26;18.50;99.90
8965;DHT22;4517;49.020;12.066;2023-04-25T05:37:51;19.10;99.90
8965;DHT22;4517;49.020;12.066;2023-04-25T05:40:17;19.70;99.90
8965;DHT22;4517;49.020;12.066;2023-04-25T05:42:42;20.10;99.90
8965;DHT22;4517;49.020;12.066;2023-04-25T05:45:08;19.80;99.90
8965;DHT22;4517;49.020;12.066;2023-04-25T05:47:34;20.40;99.90
8965;DHT22;4517;49.020;12.066;2023-04-25T05:50:01;20.60;99.50
8965;DHT22;4517;49.020;12.066;2023-04-25T05:52:26;20.70;97.50
8965;DHT22;4517;49.020;12.066;2023-04-25T05:54:52;20.10;96.90
8965;DHT22;4517;49.020;12.066;2023-04-25T05:57:22;20.30;96.00
8965;DHT22;4517;49.020;12.066;2023-04-25T05:59:50;20.20;96.40
8965;DHT22;4517;49.020;12.066;2023-04-25T06:02:16;20.70;95.10
8965;DHT22;4517;49.020;12.066;2023-04-25T06:04:42;19.70;94.20
8965;DHT22;4517;49.020;12.066;2023-04-25T06:07:08;18.00;95.20
8965;DHT22;4517;49.020;12.066;2023-04-25T06:09:34;16.30;96.60
8965;DHT22;4517;49.020;12.066;2023-04-25T06:11:59;15.50;98.00
8965;DHT22;4517;49.020;12.066;2023-04-25T06:14:26;14.90;99.40
8965;DHT22;4517;49.020;12.066;2023-04-25T06:16:51;14.60;99.90
8965;DHT22;4517;49.020;12.066;2023-04-25T06:19:18;14.00;99.90
8965;DHT22;4517;49.020;12.066;2023-04-25T06:21:44;13.60;99.90
8965;DHT22;4517;49.020;12.066;2023-04-25T06:24:09;13.30;99.90
8965;DHT22;4517;49.020;12.066;2023-04-25T06:26:35;13.30;99.90
8965;DHT22;4517;49.020;12.066;2023-04-25T06:29:01;12.90;99.90
8965;DHT22;4517;49.020;12.066;2023-04-25T06:31:27;12.70;99.90
8965;DHT22;4517;49.020;12.066;2023-04-25T06:33:55;12.40;99.90
8965;DHT22;4517;49.020;12.066;2023-04-25T06:36:21;12.30;99.90
8965;DHT22;4517;49.020;12.066;2023-04-25T06:38:53;12.20;99.90
8965;DHT22;4517;49.020;12.066;2023-04-25T06:41:18;11.80;99.90
8965;DHT22;4517;49.020;12.066;2023-04-25T06:43:45;11.50;99.90
8965;DHT22;4517;49.020;12.066;2023-04-25T06:46:11;11.50;99.90
8965;DHT22;4517;49.020;12.066;2023-04-25T06:48:36;11.50;99.90
8965;DHT22;4517;49.020;12.066;2023-04-25T06:51:02;12.00;99.90
8965;DHT22;4517;49.020;12.066;2023-04-25T06:53:29;12.30;99.90
8965;DHT22;4517;49.020;12.066;2023-04-25T06:55:54;12.30;99.90
8965;DHT22;4517;49.020;12.066;2023-04-25T06:58:21;12.40;99.90
8965;DHT22;4517;49.020;12.066;2023-04-25T07:00:46;12.50;99.90
8965;DHT22;4517;49.020;12.066;2023-04-25T07:03:12;12.40;99.90
8965;DHT22;4517;49.020;12.066;2023-04-25T07:05:38;12.20;99.90
8965;DHT22;4517;49.020;12.066;2023-04-25T07:08:03;12.20;99.90
8965;DHT22;4517;49.020;12.066;2023-04-25T07:10:29;12.10;99.90
8965;DHT22;4517;49.020;12.066;2023-04-25T07:12:55;12.20;99.90
8965;DHT22;4517;49.020;12.066;2023-04-25T07:15:20;12.20;99.90
8965;DHT22;4517;49.020;12.066;2023-04-25T07:17:46;11.90;99.90
8965;DHT22;4517;49.020;12.066;2023-04-25T07:20:11;11.70;99.90
8965;DHT22;4517;49.020;12.066;2023-04-25T07:22:37;11.70;99.90
8965;DHT22;4517;49.020;12.066;2023-04-25T07:25:03;11.90;99.90
8965;DHT22;4517;49.020;12.066;2023-04-25T07:27:29;12.20;99.90
8965;DHT22;4517;49.020;12.066;2023-04-25T07:29:55;12.60;99.90
8965;DHT22;4517;49.020;12.066;2023-04-25T07:32:21;12.60;99.90
8965;DHT22;4517;49.020;12.066;2023-04-25T07:34:46;12.60;99.90
8965;DHT22;4517;49.020;12.066;2023-04-25T07:37:12;12.60;99.90
8965;DHT22;4517;49.020;12.066;2023-04-25T07:39:39;12.50;99.90
8965;DHT22;4517;49.020;12.066;2023-04-25T07:42:06;12.00;99.90
8965;DHT22;4517;49.020;12.066;2023-04-25T07:44:34;11.90;99.90
8965;DHT22;4517;49.020;12.066;2023-04-25T07:47:05;12.20;99.90
8965;DHT22;4517;49.020;12.066;2023-04-25T07:49:34;12.10;99.90
8965;DHT22;4517;49.020;12.066;2023-04-25T07:52:04;12.10;99.90
8965;DHT22;4517;49.020;12.066;2023-04-25T07:54:34;12.20;99.90
8965;DHT22;4517;49.020;12.066;2023-04-25T07:57:01;12.30;99.90
8965;DHT22;4517;49.020;12.066;2023-04-25T07:59:46;12.50;99.90
8965;DHT22;4517;49.020;12.066;2023-04-25T08:02:27;12.60;99.90
8965;DHT22;4517;49.020;12.066;2023-04-25T08:05:02;12.50;99.90
8965;DHT22;4517;49.020;12.066;2023-04-25T08:07:31;12.80;99.90
8965;DHT22;4517;49.020;12.066;2023-04-25T08:10:04;13.30;99.90
8965;DHT22;4517;49.020;12.066;2023-04-25T08:12:39;13.60;99.90
8965;DHT22;4517;49.020;12.066;2023-04-25T08:15:09;13.70;99.90
8965;DHT22;4517;49.020;12.066;2023-04-25T08:17:58;13.80;99.90
8965;DHT22;4517;49.020;12.066;2023-04-25T08:20:59;13.70;99.90
8965;DHT22;4517;49.020;12.066;2023-04-25T08:23:40;13.80;99.90
8965;DHT22;4517;49.020;12.066;2023-04-25T08:26:12;13.20;99.90
8965;DHT22;4517;49.020;12.066;2023-04-25T08:28:38;13.00;99.90
8965;DHT22;4517;49.020;12.066;2023-04-25T08:31:04;12.80;99.90
8965;DHT22;4517;49.020;12.066;2023-04-25T08:33:30;12.60;99.90
8965;DHT22;4517;49.020;12.066;2023-04-25T08:35:57;12.30;99.90
8965;DHT22;4517;49.020;12.066;2023-04-25T08:38:22;12.20;99.90
8965;DHT22;4517;49.020;12.066;2023-04-25T08:40:51;12.60;99.90
8965;DHT22;4517;49.020;12.066;2023-04-25T08:43:19;12.70;99.90
8965;DHT22;4517;49.020;12.066;2023-04-25T08:45:45;13.20;99.90
8965;DHT22;4517;49.020;12.066;2023-04-25T08:48:16;13.70;99.90
8965;DHT22;4517;49.020;12.066;2023-04-25T08:50:49;13.80;99.90
8965;DHT22;4517;49.020;12.066;2023-04-25T08:53:16;13.60;99.90
8965;DHT22;4517;49.020;12.066;2023-04-25T08:55:46;13.80;99.90
8965;DHT22;4517;49.020;12.066;2023-04-25T08:58:12;13.70;99.90
8965;DHT22;4517;49.020;12.066;2023-04-25T09:00:39;13.60;99.90
8965;DHT22;4517;49.020;12.066;2023-04-25T09:03:05;13.60;99.90
8965;DHT22;4517;49.020;12.066;2023-04-25T09:05:33;13.20;99.90
8965;DHT22;4517;49.020;12.066;2023-04-25T09:07:58;12.80;99.90
8965;DHT22;4517;49.020;12.066;2023-04-25T09:10:26;12.50;99.90
8965;DHT22;4517;49.020;12.066;2023-04-25T09:13:12;12.10;99.90
8965;DHT22;4517;49.020;12.066;2023-04-25T09:15:49;11.80;99.90
8965;DHT22;4517;49.020;12.066;2023-04-25T09:18:25;11.70;99.90
8965;DHT22;4517;49.020;12.066;2023-04-25T09:20:55;11.50;99.90
8965;DHT22;4517;49.020;12.066;2023-04-25T09:23:22;11.70;99.90
8965;DHT22;4517;49.020;12.066;2023-04-25T09:25:50;12.00;99.90
8965;DHT22;4517;49.020;12.066;2023-04-25T09:28:16;12.30;99.90
8965;DHT22;4517;49.020;12.066;2023-04-25T09:30:42;12.10;99.90
8965;DHT22;4517;49.020;12.066;2023-04-25T09:33:10;11.70;99.90
8965;DHT22;4517;49.020;12.066;2023-04-25T09:35:43;11.70;99.90
8965;DHT22;4517;49.020;12.066;2023-04-25T09:38:14;11.80;99.90
8965;DHT22;4517;49.020;12.066;2023-04-25T09:40:45;12.20;99.90
8965;DHT22;4517;49.020;12.066;2023-04-25T09:43:22;12.80;99.90
8965;DHT22;4517;49.020;12.066;2023-04-25T09:45:49;13.10;99.90
8965;DHT22;4517;49.020;12.066;2023-04-25T09:48:18;12.80;99.90
8965;DHT22;4517;49.020;12.066;2023-04-25T09:50:44;12.60;99.90
8965;DHT22;4517;49.020;12.066;2023-04-25T09:53:10;12.10;99.90
8965;DHT22;4517;49.020;12.066;2023-04-25T09:55:36;11.80;99.90
8965;DHT22;4517;49.020;12.066;2023-04-25T09:58:04;11.70;99.90
8965;DHT22;4517;49.020;12.066;2023-04-25T10:00:33;11.60;99.90
8965;DHT22;4517;49.020;12.066;2023-04-25T10:03:01;12.00;99.90
8965;DHT22;4517;49.020;12.066;2023-04-25T10:05:30;12.40;99.90
8965;DHT22;4517;49.020;12.066;2023-04-25T10:07:58;12.50;99.90
8965;DHT22;4517;49.020;12.066;2023-04-25T10:10:24;12.80;99.90
8965;DHT22;4517;49.020;12.066;2023-04-25T10:12:53;12.60;99.90
8965;DHT22;4517;49.020;12.066;2023-04-25T10:15:19;12.70;99.90
8965;DHT22;4517;49.020;12.066;2023-04-25T10:17:45;12.90;99.90
8965;DHT22;4517;49.020;12.066;2023-04-25T10:20:11;13.00;99.90
8965;DHT22;4517;49.020;12.066;2023-04-25T10:22:39;13.50;99.90
8965;DHT22;4517;49.020;12.066;2023-04-25T10:25:07;13.20;99.90
8965;DHT22;4517;49.020;12.066;2023-04-25T10:27:34;12.50;99.90
8965;DHT22;4517;49.020;12.066;2023-04-25T10:30:13;11.80;99.90
8965;DHT22;4517;49.020;12.066;2023-04-25T10:32:42;11.30;99.90
8965;DHT22;4517;49.020;12.066;2023-04-25T10:38:03;11.00;99.90
8965;DHT22;4517;49.020;12.066;2023-04-25T10:40:30;10.90;99.90
8965;DHT22;4517;49.020;12.066;2023-04-25T10:46:30;11.50;99.90
8965;DHT22;4517;49.020;12.066;2023-04-25T10:49:01;11.10;99.90
8965;DHT22;4517;49.020;12.066;2023-04-25T10:51:29;11.00;99.90
8965;DHT22;4517;49.020;12.066;2023-04-25T10:56:41;12.00;99.90
8965;DHT22;4517;49.020;12.066;2023-04-25T10:59:17;12.30;99.90
8965;DHT22;4517;49.020;12.066;2023-04-25T11:01:47;12.30;99.90
8965;DHT22;4517;49.020;12.066;2023-04-25T11:07:09;12.50;99.90
8965;DHT22;4517;49.020;12.066;2023-04-25T11:09:38;12.70;99.90
8965;DHT22;4517;49.020;12.066;2023-04-25T11:12:07;13.00;99.90
8965;DHT22;4517;49.020;12.066;2023-04-25T11:14:33;12.80;99.90
8965;DHT22;4517;49.020;12.066;2023-04-25T11:16:59;12.60;99.90
8965;DHT22;4517;49.020;12.066;2023-04-25T11:19:26;12.60;99.90
8965;DHT22;4517;49.020;12.066;2023-04-25T11:22:00;12.50;99.90
8965;DHT22;4517;49.020;12.066;2023-04-25T11:26:53;12.00;99.90
8965;DHT22;4517;49.020;12.066;2023-04-25T11:29:22;12.10;99.90
8965;DHT22;4517;49.020;12.066;2023-04-25T11:31:48;12.00;99.90
8965;DHT22;4517;49.020;12.066;2023-04-25T11:34:17;11.90;99.90
8965;DHT22;4517;49.020;12.066;2023-04-25T11:36:45;11.90;99.90
8965;DHT22;4517;49.020;12.066;2023-04-25T11:39:11;11.90;99.90
8965;DHT22;4517;49.020;12.066;2023-04-25T11:41:39;12.00;99.90
8965;DHT22;4517;49.020;12.066;2023-04-25T11:44:07;12.10;99.90
8965;DHT22;4517;49.020;12.066;2023-04-25T11:46:36;12.10;99.90
8965;DHT22;4517;49.020;12.066;2023-04-25T11:49:02;11.90;99.90
8965;DHT22;4517;49.020;12.066;2023-04-25T11:51:27;12.10;99.90
8965;DHT22;4517;49.020;12.066;2023-04-25T11:53:53;12.50;99.90
8965;DHT22;4517;49.020;12.066;2023-04-25T11:56:20;12.60;99.90
8965;DHT22;4517;49.020;12.066;2023-04-25T11:58:56;12.60;99.90
8965;DHT22;4517;49.020;12.066;2023-04-25T12:01:29;12.70;99.90
8965;DHT22;4517;49.020;12.066;2023-04-25T12:03:56;12.60;99.90
8965;DHT22;4517;49.020;12.066;2023-04-25T12:06:26;12.70;99.80
8965;DHT22;4517;49.020;12.066;2023-04-25T12:09:06;13.00;99.50
8965;DHT22;4517;49.020;12.066;2023-04-25T12:11:35;13.30;98.70
8965;DHT22;4517;49.020;12.066;2023-04-25T12:14:06;13.70;98.80
8965;DHT22;4517;49.020;12.066;2023-04-25T12:16:45;13.60;99.10
8965;DHT22;4517;49.020;12.066;2023-04-25T12:19:18;13.70;99.20
8965;DHT22;4517;49.020;12.066;2023-04-25T12:21:44;13.90;99.40
8965;DHT22;4517;49.020;12.066;2023-04-25T12:24:33;13.70;98.10
8965;DHT22;4517;49.020;12.066;2023-04-25T12:27:02;13.60;98.20
8965;DHT22;4517;49.020;12.066;2023-04-25T12:29:30;13.70;98.90
8965;DHT22;4517;49.020;12.066;2023-04-25T12:31:56;13.40;99.30
8965;DHT22;4517;49.020;12.066;2023-04-25T12:34:22;13.50;99.30
8965;DHT22;4517;49.020;12.066;2023-04-25T12:36:49;13.50;98.00
8965;DHT22;4517;49.020;12.066;2023-04-25T12:39:19;13.40;97.80
8965;DHT22;4517;49.020;12.066;2023-04-25T12:41:45;13.60;98.10
8965;DHT22;4517;49.020;12.066;2023-04-25T12:44:12;13.50;97.40
8965;DHT22;4517;49.020;12.066;2023-04-25T12:46:38;13.70;98.10
8965;DHT22;4517;49.020;12.066;2023-04-25T12:49:04;13.90;97.70
8965;DHT22;4517;49.020;12.066;2023-04-25T12:51:30;14.10;97.40
8965;DHT22;4517;49.020;12.066;2023-04-25T12:53:58;14.10;97.10
8965;DHT22;4517;49.020;12.066;2023-04-25T12:56:24;14.30;97.80
8965;DHT22;4517;49.020;12.066;2023-04-25T12:58:50;14.50;98.00
8965;DHT22;4517;49.020;12.066;2023-04-25T13:01:16;14.80;97.40
8965;DHT22;4517;49.020;12.066;2023-04-25T13:03:42;14.60;97.40
8965;DHT22;4517;49.020;12.066;2023-04-25T13:06:07;14.80;97.00
8965;DHT22;4517;49.020;12.066;2023-04-25T13:08:33;14.60;97.00
8965;DHT22;4517;49.020;12.066;2023-04-25T13:11:00;14.40;97.00
8965;DHT22;4517;49.020;12.066;2023-04-25T13:13:25;14.10;97.10
8965;DHT22;4517;49.020;12.066;2023-04-25T13:15:52;13.70;98.10
8965;DHT22;4517;49.020;12.066;2023-04-25T13:18:19;13.50;97.70
8965;DHT22;4517;49.020;12.066;2023-04-25T13:20:44;13.30;97.50
8965;DHT22;4517;49.020;12.066;2023-04-25T13:23:11;13.00;98.00
8965;DHT22;4517;49.020;12.066;2023-04-25T13:25:37;12.90;98.40
8965;DHT22;4517;49.020;12.066;2023-04-25T13:28:03;12.80;98.20
8965;DHT22;4517;49.020;12.066;2023-04-25T13:30:29;12.80;98.60
8965;DHT22;4517;49.020;12.066;2023-04-25T13:32:54;12.80;98.90
8965;DHT22;4517;49.020;12.066;2023-04-25T13:35:22;12.80;99.10
8965;DHT22;4517;49.020;12.066;2023-04-25T13:37:48;12.80;99.30
8965;DHT22;4517;49.020;12.066;2023-04-25T13:40:13;12.80;99.40
8965;DHT22;4517;49.020;12.066;2023-04-25T13:42:39;12.80;99.40
8965;DHT22;4517;49.020;12.066;2023-04-25T13:45:06;12.70;98.80
8965;DHT22;4517;49.020;12.066;2023-04-25T13:47:32;12.50;98.70
8965;DHT22;4517;49.020;12.066;2023-04-25T13:49:58;12.40;98.80
8965;DHT22;4517;49.020;12.066;2023-04-25T13:52:23;12.40;99.50
8965;DHT22;4517;49.020;12.066;2023-04-25T13:54:50;12.40;99.70
8965;DHT22;4517;49.020;12.066;2023-04-25T13:57:17;12.30;99.90
8965;DHT22;4517;49.020;12.066;2023-04-25T13:59:42;12.20;99.60
8965;DHT22;4517;49.020;12.066;2023-04-25T14:02:08;12.20;99.10
8965;DHT22;4517;49.020;12.066;2023-04-25T14:04:34;12.40;99.20
8965;DHT22;4517;49.020;12.066;2023-04-25T14:07:00;12.70;99.30
8965;DHT22;4517;49.020;12.066;2023-04-25T14:09:27;13.10;99.30
8965;DHT22;4517;49.020;12.066;2023-04-25T14:11:53;13.50;98.80
8965;DHT22;4517;49.020;12.066;2023-04-25T14:14:19;13.50;97.00
8965;DHT22;4517;49.020;12.066;2023-04-25T14:16:46;13.20;97.10
8965;DHT22;4517;49.020;12.066;2023-04-25T14:19:16;13.20;97.40
8965;DHT22;4517;49.020;12.066;2023-04-25T14:21:42;13.10;97.60
8965;DHT22;4517;49.020;12.066;2023-04-25T14:24:10;13.10;97.40
8965;DHT22;4517;49.020;12.066;2023-04-25T14:26:36;13.10;97.60
8965;DHT22;4517;49.020;12.066;2023-04-25T14:29:03;13.20;97.50
8965;DHT22;4517;49.020;12.066;2023-04-25T14:31:29;13.40;98.10
8965;DHT22;4517;49.020;12.066;2023-04-25T14:33:55;13.40;96.60
8965;DHT22;4517;49.020;12.066;2023-04-25T14:36:20;13.20;96.30
8965;DHT22;4517;49.020;12.066;2023-04-25T14:38:46;13.30;96.80
8965;DHT22;4517;49.020;12.066;2023-04-25T14:41:12;13.20;96.50
8965;DHT22;4517;49.020;12.066;2023-04-25T14:43:37;13.10;96.50
8965;DHT22;4517;49.020;12.066;2023-04-25T14:46:05;12.70;96.40
8965;DHT22;4517;49.020;12.066;2023-04-25T14:48:32;12.60;96.50
8965;DHT22;4517;49.020;12.066;2023-04-25T14:50:58;12.40;95.90
8965;DHT22;4517;49.020;12.066;2023-04-25T14:53:25;12.40;96.30
8965;DHT22;4517;49.020;12.066;2023-04-25T14:55:51;12.30;95.40
8965;DHT22;4517;49.020;12.066;2023-04-25T14:58:16;12.20;95.50
8965;DHT22;4517;49.020;12.066;2023-04-25T15:00:42;12.10;95.10
8965;DHT22;4517;49.020;12.066;2023-04-25T15:03:09;12.10;94.90
8965;DHT22;4517;49.020;12.066;2023-04-25T15:05:38;12.00;94.20
8965;DHT22;4517;49.020;12.066;2023-04-25T15:08:04;12.00;94.70
8965;DHT22;4517;49.020;12.066;2023-04-25T15:10:29;12.30;95.00
8965;DHT22;4517;49.020;12.066;2023-04-25T15:12:55;12.30;94.50
8965;DHT22;4517;49.020;12.066;2023-04-25T15:15:20;12.30;94.50
8965;DHT22;4517;49.020;12.066;2023-04-25T15:17:47;12.40;94.70
8965;DHT22;4517;49.020;12.066;2023-04-25T15:20:13;12.40;94.90
8965;DHT22;4517;49.020;12.066;2023-04-25T15:22:40;12.50;95.30
8965;DHT22;4517;49.020;12.066;2023-04-25T15:25:10;12.80;94.60
8965;DHT22;4517;49.020;12.066;2023-04-25T15:27:37;12.70;94.00
8965;DHT22;4517;49.020;12.066;2023-04-25T15:30:07;12.50;93.60
8965;DHT22;4517;49.020;12.066;2023-04-25T15:32:33;12.30;92.70
8965;DHT22;4517;49.020;12.066;2023-04-25T15:35:01;12.50;93.00
8965;DHT22;4517;49.020;12.066;2023-04-25T15:37:28;12.50;93.10
8965;DHT22;4517;49.020;12.066;2023-04-25T15:40:14;12.30;93.40
8965;DHT22;4517;49.020;12.066;2023-04-25T15:42:42;12.40;93.90
8965;DHT22;4517;49.020;12.066;2023-04-25T15:45:09;12.60;93.90
8965;DHT22;4517;49.020;12.066;2023-04-25T15:47:36;12.60;94.30
8965;DHT22;4517;49.020;12.066;2023-04-25T15:50:04;12.70;94.70
8965;DHT22;4517;49.020;12.066;2023-04-25T15:52:31;12.70;94.50
8965;DHT22;4517;49.020;12.066;2023-04-25T15:54:56;12.20;94.60
8965;DHT22;4517;49.020;12.066;2023-04-25T15:57:22;11.90;95.00
8965;DHT22;4517;49.020;12.066;2023-04-25T15:59:48;11.70;94.90
8965;DHT22;4517;49.020;12.066;2023-04-25T16:02:15;11.60;95.30
8965;DHT22;4517;49.020;12.066;2023-04-25T16:04:41;11.50;95.70
8965;DHT22;4517;49.020;12.066;2023-04-25T16:07:07;11.30;95.60